• Join FlightAware (Why Join?)
  • Login
  • US Flag 
08:50AM EST


 

Airport Tracker/Info


-or-


 

Live Flight TrackerFlight Track Log ✈ N5763N ✈ 22-Jun-2013 ✈ KAPF - KLZU

Flight Track Log - Related Links

Times and Time Zones

All times are in EDT time to prevent confusion due to time zone crossing. See the N5763N flight status page for this flight to view local times or setup timezone preferences in your user account.

Time Position Orientation Groundspeed Altitude Reporting Facility
EDT Latitude Longitude Course Direction KTS MPH feet Rate Location/Type
05:36PM 26.1511 -81.9319 270° West 86 99 4,000  Level Miami Center
05:37PM 26.1167 -82.0788 270° West  Level FlightAware Approximate
05:37PM 26.1500 -81.9597 267° West 86 99 4,500  Level Miami Center
05:38PM 26.1167 -82.1313 270° West  Level FlightAware Approximate
05:38PM 26.1533 -81.9897 277° West 91 105 5,100  Level Miami Center
05:39PM 26.1167 -82.1837 270° West  Level FlightAware Approximate
05:39PM 26.1586 -82.0178 282° West 91 105 5,600  Level Miami Center
05:40PM 26.1008 -82.2316 241° Southwest  Level FlightAware Approximate
05:40PM 26.1639 -82.0458 282° West 91 105 6,200  Level Miami Center
05:41PM 26.1000 -82.2838 270° West  Level FlightAware Approximate
05:41PM 26.1628 -82.0758 268° West 91 105 6,700  Level Miami Center
05:42PM 26.1000 -82.3363 270° West  Level FlightAware Approximate
05:42PM 26.1700 -82.1017 287° West 91 105 7,200  Level Miami Center
05:43PM 26.1861 -82.1231 310° West 91 105 7,700 420 Climbing Miami Center
05:44PM 26.2089 -82.1264 353° North 85 98 8,100 420 Climbing Miami Center
05:45PM 26.2289 -82.1481 316° Northwest 85 98 8,600 420 Climbing Miami Center
05:46PM 26.2494 -82.1606 331° Northwest 85 98 9,000 300 Climbing Miami Center
05:47PM 26.2697 -82.1731 331° Northwest 80 92 9,300 300 Climbing Miami Center
05:48PM 26.2881 -82.1900 320° Northwest 80 92 9,700 300 Climbing Miami Center
05:49PM 26.3061 -82.2072 319° Northwest 85 98 9,900 300 Climbing Miami Center
05:50PM 26.3264 -82.2219 327° Northwest 85 98 10,300 300 Climbing Miami Center
05:51PM 26.3467 -82.2392 323° Northwest 85 98 10,600 300 Climbing Miami Center
05:52PM 26.3692 -82.2542 329° Northwest 85 98 10,900 300 Climbing Miami Center
05:53PM 26.3875 -82.2689 324° Northwest 85 98 11,300 300 Climbing Miami Center
05:54PM 26.4075 -82.2858 323° Northwest 85 98 11,500 240 Climbing Miami Center
05:55PM 26.4239 -82.2983 326° Northwest 78 90 11,800 240 Climbing Miami Center
05:56PM 26.4461 -82.3156 325° Northwest 78 90 12,000 60 Climbing Miami Center
05:57PM 26.4706 -82.3353 324° Northwest 91 105 12,000  Level Miami Center
05:58PM 26.5031 -82.3600 326° Northwest 115 132 12,000  Level Miami Center
05:59PM 26.5375 -82.3869 325° Northwest 130 150 12,000  Level Miami Center
06:00PM 26.5678 -82.4117 324° Northwest 137 158 12,000  Level Miami Center
06:01PM 26.6000 -82.4386 323° Northwest 143 165 12,000 -60 Level Miami Center
06:02PM 26.6325 -82.4636 325° Northwest 143 165 11,900 -60 Descending Miami Center
06:03PM 26.6650 -82.4906 323° Northwest 143 165 11,900  Level Miami Center
06:04PM 26.6972 -82.5153 326° Northwest 143 165 11,900  Level Miami Center
06:05PM 26.7297 -82.5403 326° Northwest 148 170 12,000  Climbing Miami Center
06:06PM 26.7622 -82.5675 323° Northwest 148 170 12,000  Level Miami Center
06:07PM 26.7944 -82.5922 326° Northwest 148 170 12,000  Level Miami Center
06:08PM 26.8269 -82.6194 323° Northwest 148 170 12,000 -60 Level Miami Center
06:09PM 26.8594 -82.6419 328° Northwest 148 170 11,900 -60 Descending Miami Center
06:10PM 26.8917 -82.6692 323° Northwest 148 170 11,900  Level Miami Center
06:11PM 26.9219 -82.6939 324° Northwest 148 170 11,900  Level Miami Center
06:12PM 26.9564 -82.7189 327° Northwest 148 170 12,000  Climbing Miami Center
06:13PM 26.9886 -82.7483 321° Northwest 148 170 12,000  Level Miami Center
06:14PM 27.0208 -82.7733 325° Northwest 148 170 12,000  Level Miami Center
06:15PM 27.0533 -82.8006 323° Northwest 148 170 12,000 -60 Level Miami Center
06:16PM 27.0856 -82.8256 325° Northwest 148 170 11,900 -60 Descending Miami Center
06:17PM 27.1178 -82.8531 323° Northwest 148 170 11,900  Level Miami Center
06:18PM 27.1483 -82.8756 327° Northwest 148 170 12,000  Climbing Miami Center
06:19PM 27.1806 -82.9028 323° Northwest 148 170 11,900  Descending Miami Center
06:20PM 27.2150 -82.9256 330° Northwest 148 170 12,000  Climbing Miami Center
06:21PM 27.2472 -82.9553 321° Northwest 148 170 11,900 -60 Descending Miami Center
06:22PM 27.2814 -82.9828 324° Northwest 153 176 11,900  Level Miami Center
06:23PM 27.3158 -83.0058 329° Northwest 148 170 12,000  Climbing Miami Center
06:24PM 27.3528 -83.0217 339° North 141 162 12,000  Level Miami Center
06:25PM 27.3919 -83.0356 343° North 141 162 12,000 -60 Level Miami Center
06:26PM 27.4308 -83.0517 340° North 141 162 11,900 -60 Descending Miami Center
06:27PM 27.4697 -83.0700 337° Northwest 141 162 11,900  Level Miami Center
06:28PM 27.5067 -83.0836 342° North 141 162 12,000  Climbing Miami Center
06:29PM 27.5436 -83.0975 342° North 146 168 11,900 -60 Descending Miami Center
06:30PM 27.5844 -83.1161 338° Northwest 146 168 11,900  Level Miami Center
06:31PM 27.6214 -83.1297 342° North 146 168 12,000  Climbing Miami Center
06:32PM 27.6603 -83.1483 337° Northwest 146 168 11,900  Descending Miami Center
06:33PM 27.6972 -83.1622 342° North 147 169 12,000  Climbing Miami Center
06:34PM 27.7381 -83.1783 341° North 147 169 11,900 -60 Descending Miami Center
06:35PM 27.7750 -83.1944 339° North 147 169 11,900  Level Miami Center
06:36PM 27.8139 -83.2108 340° North 147 169 11,900  Level Miami Center
06:37PM 27.8528 -83.2269 340° North 147 169 11,900  Level Miami Center
06:38PM 27.8917 -83.2433 340° North 147 169 12,000  Climbing Miami Center
06:42PM 28.0075 -83.2922 340° North 136 157 12,100  Climbing Jacksonville Center
06:43PM 28.0511 -83.3089 341° North 136 157 12,000 -60 Descending Jacksonville Center
06:44PM 28.0886 -83.3231 342° North 141 162 12,000  Level Jacksonville Center
06:45PM 28.1261 -83.3397 339° North 136 157 12,100  Climbing Jacksonville Center
06:46PM 28.1658 -83.3564 340° North 136 157 12,000 -60 Descending Jacksonville Center
06:47PM 28.2053 -83.3708 342° North 136 157 12,000  Level Jacksonville Center
06:48PM 28.2492 -83.3850 344° North 136 157 12,000  Level Jacksonville Center
06:49PM 28.2886 -83.4042 337° Northwest 136 157 12,000  Level Jacksonville Center
06:50PM 28.3219 -83.4231 333° Northwest 136 157 12,000  Level Jacksonville Center
06:51PM 28.3636 -83.4375 343° North 136 157 12,100  Climbing Jacksonville Center
06:52PM 28.4033 -83.4589 335° Northwest 136 157 12,100  Level Jacksonville Center
06:53PM 28.4492 -83.4733 345° North 138 159 12,100 -60 Level Jacksonville Center
06:54PM 28.4783 -83.4831 344° North 133 153 12,000 -60 Descending Jacksonville Center
06:55PM 28.5261 -83.5022 341° North 138 159 12,000  Level Jacksonville Center
06:56PM 28.5658 -83.5214 337° Northwest 143 165 12,100  Climbing Jacksonville Center
06:57PM 28.6033 -83.5358 341° North 148 170 12,000 -60 Descending Jacksonville Center
06:58PM 28.6428 -83.5550 337° Northwest 148 170 12,000  Level Jacksonville Center
06:59PM 28.6803 -83.5694 341° North 148 170 12,000  Level Jacksonville Center
07:00PM 28.7197 -83.5861 340° North 148 170 12,000  Level Jacksonville Center
07:01PM 28.7572 -83.6008 341° North 148 170 12,100  Climbing Jacksonville Center
07:02PM 28.7969 -83.6175 340° North 148 170 12,000 -60 Descending Jacksonville Center
07:03PM 28.8364 -83.6319 342° North 148 170 12,000  Level Jacksonville Center
07:04PM 28.8739 -83.6514 336° Northwest 148 170 12,000  Level Jacksonville Center
07:05PM 28.9114 -83.6681 339° North 148 170 12,000  Level Jacksonville Center
07:06PM 28.9489 -83.6850 338° Northwest 143 165 12,000  Level Jacksonville Center
07:07PM 28.9883 -83.6997 342° North 143 165 12,100  Climbing Jacksonville Center
07:08PM 29.0258 -83.7142 341° North 148 170 12,000 -60 Descending Jacksonville Center
07:09PM 29.0633 -83.7336 336° Northwest 148 170 12,000  Level Jacksonville Center
07:10PM 29.1008 -83.7506 338° Northwest 148 170 12,000  Level Jacksonville Center
07:11PM 29.1361 -83.7650 340° North 148 170 12,000  Level Jacksonville Center
07:12PM 29.1778 -83.7819 340° North 148 170 12,000  Level Jacksonville Center
07:13PM 29.2153 -83.7967 341° North 148 170 12,000  Level Jacksonville Center
07:14PM 29.2528 -83.8136 338° Northwest 148 170 12,000  Level Jacksonville Center
07:15PM 29.2903 -83.8306 338° Northwest 148 170 12,000  Level Jacksonville Center
07:16PM 29.3319 -83.8478 340° North 148 170 12,000  Level Jacksonville Center
07:17PM 29.3714 -83.8647 339° North 148 170 12,000  Level Jacksonville Center
07:18PM 29.4108 -83.8794 342° North 148 170 12,000  Level Jacksonville Center
07:19PM 29.4506 -83.8989 337° Northwest 148 170 12,000  Level Jacksonville Center
07:20PM 29.4878 -83.9136 341° North 148 170 12,000  Level Jacksonville Center
07:21PM 29.5275 -83.9331 337° Northwest 148 170 12,000  Level Jacksonville Center
07:22PM 29.5669 -83.9481 342° North 148 170 12,000  Level Jacksonville Center
07:23PM 29.6064 -83.9650 340° North 148 170 12,100  Climbing Jacksonville Center
07:24PM 29.6353 -83.9964 317° Northwest 148 170 12,000 -60 Descending Jacksonville Center
07:25PM 29.6644 -84.0256 319° Northwest 141 162 12,000  Level Jacksonville Center
07:26PM 29.6997 -84.0522 327° Northwest 141 162 12,000  Level Jacksonville Center
07:27PM 29.7350 -84.0767 329° Northwest 141 162 12,000  Level Jacksonville Center
07:28PM 29.7681 -84.1008 328° Northwest 147 169 12,000  Level Jacksonville Center
07:29PM 29.8033 -84.1278 326° Northwest 147 169 12,000  Level Jacksonville Center
07:30PM 29.8364 -84.1544 325° Northwest 147 169 12,000  Level Jacksonville Center
07:31PM 29.8697 -84.1789 328° Northwest 147 169 12,000  Level Jacksonville Center
07:32PM 29.9006 -84.2056 323° Northwest 147 169 12,000  Level Jacksonville Center
07:33PM 29.9358 -84.2300 329° Northwest 147 169 12,000  Level Jacksonville Center
07:34PM 29.9669 -84.2567 323° Northwest 147 169 12,000  Level Jacksonville Center
07:35PM 30.0042 -84.2814 330° Northwest 152 175 12,000  Level Jacksonville Center
07:36PM 30.0394 -84.3083 327° Northwest 147 169 12,000  Level Jacksonville Center
07:37PM 30.0706 -84.3328 326° Northwest 147 169 12,000  Level Jacksonville Center
07:38PM 30.1036 -84.3594 325° Northwest 147 169 12,000  Level Jacksonville Center
07:39PM 30.1367 -84.3889 322° Northwest 160 184 12,000  Level Jacksonville Center
07:40PM 30.1761 -84.4086 337° Northwest 155 178 12,000  Level Jacksonville Center
07:41PM 30.2156 -84.4286 336° Northwest 155 178 12,000  Level Jacksonville Center
07:42PM 30.2550 -84.4483 337° Northwest 155 178 12,000  Level Jacksonville Center
07:43PM 30.2944 -84.4683 336° Northwest 150 173 12,000  Level Jacksonville Center
07:44PM 30.3358 -84.4833 343° North 150 173 12,000  Level Jacksonville Center
07:45PM 30.3733 -84.4936 347° North 145 167 12,000  Level Jacksonville Center
07:46PM 30.4044 -84.5136 331° Northwest 145 167 12,000  Level Jacksonville Center
07:47PM 30.4458 -84.5336 337° Northwest 145 167 12,000  Level Jacksonville Center
07:48PM 30.4811 -84.5508 337° Northwest 145 167 12,000  Level Jacksonville Center
07:49PM 30.5228 -84.5661 342° North 145 167 12,000  Level Jacksonville Center
07:50PM 30.5644 -84.5814 342° North 145 167 12,000  Level Jacksonville Center
07:51PM 30.6017 -84.5942 344° North 145 167 12,000  Level Jacksonville Center
07:52PM 30.6433 -84.6094 342° North 145 167 12,000  Level Jacksonville Center
07:53PM 30.6828 -84.6244 342° North 150 173 12,000  Level Jacksonville Center
07:54PM 30.7200 -84.6422 338° Northwest 144 166 12,000  Level Jacksonville Center
07:55PM 30.7594 -84.6597 339° North 150 173 12,000  Level Jacksonville Center
07:56PM 30.7969 -84.6750 341° North 145 167 12,000  Level Jacksonville Center
07:57PM 30.8406 -84.6903 343° North 145 167 12,100  Climbing Jacksonville Center
07:58PM 30.8781 -84.7006 347° North 150 173 12,000 -60 Descending Jacksonville Center
07:59PM 30.9175 -84.7161 341° North 150 173 12,000  Level Jacksonville Center
08:00PM 30.9589 -84.7314 342° North 145 167 12,000  Level Jacksonville Center
08:01PM 30.9964 -84.7394 350° North 145 167 12,000  Level Jacksonville Center
08:02PM 31.0381 -84.7547 343° North 145 167 12,000  Level Jacksonville Center
08:03PM 31.0858 -84.7628 352° North 150 173 12,000  Level Jacksonville Center
08:04PM 31.1256 -84.7611 North 155 178 12,100  Climbing Jacksonville Center
08:05PM 31.1675 -84.7500 13° North 155 178 12,000 -60 Descending Jacksonville Center
08:06PM 31.2094 -84.7361 16° North 149 171 12,000  Level Jacksonville Center
08:07PM 31.2472 -84.7200 20° North 149 171 12,000  Level Jacksonville Center
08:08PM 31.2872 -84.7036 19° North 149 171 12,000  Level Jacksonville Center
08:09PM 31.3253 -84.6728 35° Northeast 149 171 12,000  Level Jacksonville Center
08:10PM 31.3528 -84.6344 50° Northeast 149 171 12,000  Level Jacksonville Center
08:11PM 31.3744 -84.5886 61° Northeast 156 180 12,000  Level Jacksonville Center
08:12PM 31.4000 -84.5453 55° Northeast 156 180 12,000  Level Jacksonville Center
08:13PM 31.4236 -84.5019 57° Northeast 156 180 12,100  Climbing Jacksonville Center
08:14PM 31.4428 -84.4558 64° Northeast 161 185 12,000 -60 Descending Jacksonville Center
08:15PM 31.4622 -84.4100 64° Northeast 161 185 12,000  Level Jacksonville Center
08:16PM 31.4856 -84.3689 56° Northeast 156 180 12,000  Level Jacksonville Center
08:17PM 31.5133 -84.3281 51° Northeast 156 180 12,000  Level Jacksonville Center
08:18PM 31.5408 -84.2942 46° Northeast 149 171 12,000  Level Jacksonville Center
08:19PM 31.5767 -84.2656 34° Northeast 144 166 12,000  Level Jacksonville Center
08:20PM 31.6103 -84.2392 34° Northeast 144 166 12,100  Climbing Jacksonville Center
08:21PM 31.6442 -84.2031 42° Northeast 144 166 12,100 -60 Level Jacksonville Center
08:22PM 31.6756 -84.1742 38° Northeast 144 166 12,000 -60 Descending Jacksonville Center
08:23PM 31.7053 -84.1406 44° Northeast 144 166 12,000  Level Jacksonville Center
08:24PM 31.7450 -84.1264 17° North 139 160 12,000  Level Jacksonville Center
08:25PM 31.7847 -84.1244 North 139 160 12,000  Level Jacksonville Center
08:26PM 31.8244 -84.1225 North 139 160 12,000  Level Jacksonville Center
08:27PM 31.8844 -84.1172 North 148 170 12,000  Level Atlanta Center
08:28PM 31.9219 -84.1122 North 143 165 12,000  Level Atlanta Center
08:29PM 31.9617 -84.0975 17° North 143 165 12,000  Level Atlanta Center
08:30PM 31.9992 -84.0781 24° Northeast 143 165 12,000  Level Atlanta Center
08:31PM 32.0389 -84.0633 17° North 148 170 12,100  Climbing Atlanta Center
08:32PM 32.0783 -84.0586 North 148 170 12,000 -60 Descending Atlanta Center
08:33PM 32.1139 -84.0683 347° North 143 165 12,000  Level Atlanta Center
08:34PM 32.1536 -84.0806 345° North 143 165 12,000  Level Atlanta Center
08:35PM 32.1953 -84.0928 346° North 143 165 12,100  Climbing Atlanta Center
08:36PM 32.2350 -84.1028 348° North 143 165 12,000 -60 Descending Atlanta Center
08:37PM 32.2747 -84.1100 351° North 143 165 12,000  Level Atlanta Center
08:38PM 32.2872 -84.1544 288° West 119 137 12,000  Level Atlanta Center
08:39PM 32.3017 -84.2011 290° West 130 150 12,000 -60 Level Atlanta Center
08:40PM 32.3183 -84.2453 294° West 143 165 11,900 -60 Descending Atlanta Center
08:41PM 32.3433 -84.2847 307° West 148 170 11,900  Level Atlanta Center
08:42PM 32.3725 -84.3167 317° Northwest 148 170 12,000  Climbing Atlanta Center
08:43PM 32.4100 -84.3292 344° North 148 170 11,900  Descending Atlanta Center
08:44PM 32.4517 -84.3169 14° North 137 158 12,000  Climbing Atlanta Center
08:45PM 32.4914 -84.3047 15° North 137 158 12,000  Level Atlanta Center
08:46PM 32.5353 -84.2803 25° Northeast 147 169 12,000 -300 Level Atlanta Center
08:47PM 32.5792 -84.2681 13° North 152 175 11,500 -540 Descending Atlanta Center
08:48PM 32.6294 -84.2583 North 158 182 11,000 -540 Descending Atlanta Center
08:49PM 32.6772 -84.2486 10° North 170 196 10,500 -600 Descending Atlanta Center
08:50PM 32.7294 -84.2389 North 175 201 9,900 -540 Descending Atlanta Center
08:51PM 32.7797 -84.2292 North 180 207 9,500 -480 Descending Atlanta Center
08:52PM 32.8381 -84.2192 North 180 207 9,000 -540 Descending Atlanta Center
08:54PM 32.9333 -84.2000 10° North 185 213 8,100 -540 Descending Atlanta TRACON
08:55PM 32.9833 -84.1833 16° North 180 207 7,600 -540 Descending Atlanta TRACON
08:56PM 33.0333 -84.1667 16° North 179 206 7,100 -360 Descending Atlanta TRACON
08:57PM 33.0667 -84.1667 360° North 171 197 6,900 -600 Descending Atlanta TRACON
08:58PM 33.1333 -84.1500 12° North 196 226 5,900 -780 Descending Atlanta TRACON
08:59PM 33.1833 -84.1500 360° North 188 216 5,300 -660 Descending Atlanta TRACON
09:00PM 33.2333 -84.1333 16° North 189 217 4,600 -660 Descending Atlanta TRACON
09:01PM 33.2833 -84.1000 29° Northeast 191 220 4,000 -300 Descending Atlanta TRACON
09:02PM 33.3333 -84.1000 360° North 168 193 4,000  Level Atlanta TRACON
09:03PM 33.3667 -84.1000 360° North 163 188 4,000  Level Atlanta TRACON
09:04PM 33.4167 -84.0833 16° North 164 189 4,000  Level Atlanta TRACON
09:05PM 33.4500 -84.0833 360° North 160 184 4,000  Level Atlanta TRACON
09:06PM 33.5000 -84.0667 16° North 165 190 4,000  Level Atlanta TRACON
09:07PM 33.5500 -84.0500 16° North 163 188 4,000  Level Atlanta TRACON
09:08PM 33.6000 -84.0500 360° North 160 184 4,000  Level Atlanta TRACON
09:09PM 33.6500 -84.0500 360° North 162 186 4,000  Level Atlanta TRACON
09:10PM 33.6833 -84.0500 360° North 163 188 4,000  Level Atlanta TRACON
09:11PM 33.7333 -84.0500 360° North 165 190 4,000  Level Atlanta TRACON
09:12PM 33.7833 -84.0500 360° North 166 191 4,000  Level Atlanta TRACON
09:13PM 33.8333 -84.0500 360° North 166 191 4,000 -240 Level Atlanta TRACON
09:14PM 33.8667 -84.0500 360° North 172 198 3,600 -540 Descending Atlanta TRACON
09:15PM 33.9167 -84.0500 360° North 165 190 3,000 -600 Descending Atlanta TRACON